sensor_id;sensor_type;location;lat;lon;timestamp;pressure;altitude;pressure_sealevel;temperature;humidity
56558;BME280;43358;50.356;12.456;2022-11-25T00:00:03;95551;;;3.1;98.8
56558;BME280;43358;50.356;12.456;2022-11-25T00:01:05;95549;;;3.1;98.8
56558;BME280;43358;50.356;12.456;2022-11-25T00:02:07;95548;;;3.1;98.8
56558;BME280;43358;50.356;12.456;2022-11-25T00:03:09;95547;;;3.1;98.8
56558;BME280;43358;50.356;12.456;2022-11-25T00:04:12;95551;;;3.1;98.8
56558;BME280;43358;50.356;12.456;2022-11-25T00:05:14;95553;;;3.1;98.8
56558;BME280;43358;50.356;12.456;2022-11-25T00:06:17;95554;;;3.1;98.8
56558;BME280;43358;50.356;12.456;2022-11-25T00:07:18;95556;;;3.1;98.8
56558;BME280;43358;50.356;12.456;2022-11-25T00:08:20;95557;;;3.1;98.8
56558;BME280;43358;50.356;12.456;2022-11-25T00:09:22;95557;;;3.1;98.8
56558;BME280;43358;50.356;12.456;2022-11-25T00:10:24;95553;;;3.1;98.8
56558;BME280;43358;50.356;12.456;2022-11-25T00:11:26;95551;;;3.1;98.8
56558;BME280;43358;50.356;12.456;2022-11-25T00:12:29;95555;;;3.1;98.8
56558;BME280;43358;50.356;12.456;2022-11-25T00:13:31;95555;;;3.1;98.8
56558;BME280;43358;50.356;12.456;2022-11-25T00:14:33;95559;;;3.1;98.8
56558;BME280;43358;50.356;12.456;2022-11-25T00:15:35;95560;;;3.1;98.8
56558;BME280;43358;50.356;12.456;2022-11-25T00:16:37;95557;;;3.1;98.8
56558;BME280;43358;50.356;12.456;2022-11-25T00:17:39;95560;;;3.1;98.8
56558;BME280;43358;50.356;12.456;2022-11-25T00:18:44;95558;;;3.1;98.8
56558;BME280;43358;50.356;12.456;2022-11-25T00:19:43;95556;;;3.1;98.8
56558;BME280;43358;50.356;12.456;2022-11-25T00:20:45;95552;;;3.1;98.8
56558;BME280;43358;50.356;12.456;2022-11-25T00:21:47;95554;;;3.1;98.8
56558;BME280;43358;50.356;12.456;2022-11-25T00:22:50;95552;;;3.1;98.8
56558;BME280;43358;50.356;12.456;2022-11-25T00:23:52;95550;;;3.1;98.8
56558;BME280;43358;50.356;12.456;2022-11-25T00:24:54;95552;;;3.1;98.8
56558;BME280;43358;50.356;12.456;2022-11-25T00:25:57;95556;;;3.1;98.8
56558;BME280;43358;50.356;12.456;2022-11-25T00:27:00;95552;;;3.1;98.8
56558;BME280;43358;50.356;12.456;2022-11-25T00:28:02;95552;;;3.1;98.8
56558;BME280;43358;50.356;12.456;2022-11-25T00:29:05;95550;;;3.1;98.8
56558;BME280;43358;50.356;12.456;2022-11-25T00:30:06;95548;;;3.1;98.8
56558;BME280;43358;50.356;12.456;2022-11-25T00:31:09;95544;;;3.1;98.8
56558;BME280;43358;50.356;12.456;2022-11-25T00:32:10;95545;;;3.1;98.8
56558;BME280;43358;50.356;12.456;2022-11-25T00:33:12;95543;;;3.1;98.8
56558;BME280;43358;50.356;12.456;2022-11-25T00:34:14;95542;;;3;98.8
56558;BME280;43358;50.356;12.456;2022-11-25T00:35:16;95544;;;3.1;98.8
56558;BME280;43358;50.356;12.456;2022-11-25T00:36:18;95540;;;3.1;98.8
56558;BME280;43358;50.356;12.456;2022-11-25T00:37:20;95540;;;3.1;98.8
56558;BME280;43358;50.356;12.456;2022-11-25T00:38:23;95538;;;3.1;98.8
56558;BME280;43358;50.356;12.456;2022-11-25T00:39:25;95535;;;3;98.8
56558;BME280;43358;50.356;12.456;2022-11-25T00:40:27;95534;;;3;98.8
56558;BME280;43358;50.356;12.456;2022-11-25T00:41:29;95536;;;3;98.8
56558;BME280;43358;50.356;12.456;2022-11-25T00:42:31;95534;;;3;98.8
56558;BME280;43358;50.356;12.456;2022-11-25T00:43:33;95537;;;3;98.8
56558;BME280;43358;50.356;12.456;2022-11-25T00:44:35;95539;;;3;98.8
56558;BME280;43358;50.356;12.456;2022-11-25T00:45:37;95539;;;3;98.8
56558;BME280;43358;50.356;12.456;2022-11-25T00:46:39;95540;;;3;98.8
56558;BME280;43358;50.356;12.456;2022-11-25T00:47:41;95540;;;3;98.8
56558;BME280;43358;50.356;12.456;2022-11-25T00:48:43;95539;;;3.1;98.8
56558;BME280;43358;50.356;12.456;2022-11-25T00:49:46;95541;;;3.1;98.8
56558;BME280;43358;50.356;12.456;2022-11-25T00:50:47;95539;;;3.1;98.8
56558;BME280;43358;50.356;12.456;2022-11-25T00:51:49;95540;;;3.1;98.8
56558;BME280;43358;50.356;12.456;2022-11-25T00:52:51;95538;;;3.1;98.8
56558;BME280;43358;50.356;12.456;2022-11-25T00:53:53;95539;;;3.1;98.8
56558;BME280;43358;50.356;12.456;2022-11-25T00:54:55;95538;;;3.1;98.8
56558;BME280;43358;50.356;12.456;2022-11-25T00:55:59;95546;;;3.1;98.8
56558;BME280;43358;50.356;12.456;2022-11-25T00:57:01;95547;;;3.1;98.8
56558;BME280;43358;50.356;12.456;2022-11-25T00:58:03;95544;;;3.1;98.8
56558;BME280;43358;50.356;12.456;2022-11-25T01:00:08;95548;;;3.1;98.8
56558;BME280;43358;50.356;12.456;2022-11-25T01:01:32;95545;;;3.1;98.8
56558;BME280;43358;50.356;12.456;2022-11-25T01:02:32;95549;;;3.2;98.8
56558;BME280;43358;50.356;12.456;2022-11-25T01:03:32;95551;;;3.2;98.8
56558;BME280;43358;50.356;12.456;2022-11-25T01:04:32;95551;;;3.2;98.8
56558;BME280;43358;50.356;12.456;2022-11-25T01:05:32;95551;;;3.3;98.8
56558;BME280;43358;50.356;12.456;2022-11-25T01:06:32;95553;;;3.2;98.8
56558;BME280;43358;50.356;12.456;2022-11-25T01:07:32;95553;;;3.3;98.8
56558;BME280;43358;50.356;12.456;2022-11-25T01:08:32;95550;;;3.3;98.8
56558;BME280;43358;50.356;12.456;2022-11-25T01:09:32;95549;;;3.3;98.8
56558;BME280;43358;50.356;12.456;2022-11-25T01:10:32;95549;;;3.3;98.8
56558;BME280;43358;50.356;12.456;2022-11-25T01:11:32;95553;;;3.3;98.8
56558;BME280;43358;50.356;12.456;2022-11-25T01:12:33;95555;;;3.2;98.8
56558;BME280;43358;50.356;12.456;2022-11-25T01:13:35;95554;;;3.2;98.8
56558;BME280;43358;50.356;12.456;2022-11-25T01:14:37;95553;;;3.2;98.8
56558;BME280;43358;50.356;12.456;2022-11-25T01:15:39;95554;;;3.1;98.8
56558;BME280;43358;50.356;12.456;2022-11-25T01:16:41;95554;;;3.1;98.8
56558;BME280;43358;50.356;12.456;2022-11-25T01:17:44;95552;;;3.1;98.8
56558;BME280;43358;50.356;12.456;2022-11-25T01:18:46;95554;;;3.1;98.8
56558;BME280;43358;50.356;12.456;2022-11-25T01:19:48;95551;;;3.1;98.8
56558;BME280;43358;50.356;12.456;2022-11-25T01:20:50;95554;;;3.1;98.8
56558;BME280;43358;50.356;12.456;2022-11-25T01:21:52;95554;;;3;98.8
56558;BME280;43358;50.356;12.456;2022-11-25T01:22:54;95554;;;3;98.8
56558;BME280;43358;50.356;12.456;2022-11-25T01:23:58;95551;;;3;98.8
56558;BME280;43358;50.356;12.456;2022-11-25T01:25:01;95553;;;3;98.8
56558;BME280;43358;50.356;12.456;2022-11-25T01:26:03;95554;;;3;98.8
56558;BME280;43358;50.356;12.456;2022-11-25T01:27:05;95554;;;3;98.8
56558;BME280;43358;50.356;12.456;2022-11-25T01:28:07;95553;;;3;98.8
56558;BME280;43358;50.356;12.456;2022-11-25T01:29:11;95555;;;3;98.8
56558;BME280;43358;50.356;12.456;2022-11-25T01:30:13;95550;;;3;98.8
56558;BME280;43358;50.356;12.456;2022-11-25T01:31:14;95551;;;3;98.8
56558;BME280;43358;50.356;12.456;2022-11-25T01:32:16;95550;;;3;98.8
56558;BME280;43358;50.356;12.456;2022-11-25T01:33:18;95550;;;2.9;98.8
56558;BME280;43358;50.356;12.456;2022-11-25T01:34:20;95552;;;3;98.8
56558;BME280;43358;50.356;12.456;2022-11-25T01:35:22;95552;;;2.9;98.8
56558;BME280;43358;50.356;12.456;2022-11-25T01:36:24;95555;;;2.9;98.8
56558;BME280;43358;50.356;12.456;2022-11-25T01:37:26;95556;;;2.9;98.8
56558;BME280;43358;50.356;12.456;2022-11-25T01:38:28;95557;;;2.9;98.8
56558;BME280;43358;50.356;12.456;2022-11-25T01:39:30;95558;;;2.9;98.8
56558;BME280;43358;50.356;12.456;2022-11-25T01:40:32;95560;;;2.9;98.8
56558;BME280;43358;50.356;12.456;2022-11-25T01:41:34;95556;;;2.9;98.8
56558;BME280;43358;50.356;12.456;2022-11-25T01:42:40;95563;;;2.9;98.8
56558;BME280;43358;50.356;12.456;2022-11-25T01:43:38;95565;;;3;98.8
56558;BME280;43358;50.356;12.456;2022-11-25T01:44:40;95566;;;3;98.8
56558;BME280;43358;50.356;12.456;2022-11-25T01:45:42;95565;;;3;98.8
56558;BME280;43358;50.356;12.456;2022-11-25T01:46:47;95566;;;3;98.8
56558;BME280;43358;50.356;12.456;2022-11-25T01:47:47;95564;;;3;98.8
56558;BME280;43358;50.356;12.456;2022-11-25T01:48:50;95561;;;3;98.8
56558;BME280;43358;50.356;12.456;2022-11-25T01:49:52;95564;;;3;98.8
56558;BME280;43358;50.356;12.456;2022-11-25T01:50:53;95561;;;3;98.8
56558;BME280;43358;50.356;12.456;2022-11-25T01:51:56;95559;;;3;98.8
56558;BME280;43358;50.356;12.456;2022-11-25T01:52:58;95564;;;3;98.8
56558;BME280;43358;50.356;12.456;2022-11-25T01:54:01;95560;;;2.9;98.8
56558;BME280;43358;50.356;12.456;2022-11-25T01:55:04;95563;;;3;98.8
56558;BME280;43358;50.356;12.456;2022-11-25T01:56:05;95560;;;2.9;98.8
56558;BME280;43358;50.356;12.456;2022-11-25T01:57:08;95559;;;2.9;98.8
56558;BME280;43358;50.356;12.456;2022-11-25T01:58:10;95562;;;2.9;98.8
56558;BME280;43358;50.356;12.456;2022-11-25T01:59:11;95560;;;2.9;98.8
56558;BME280;43358;50.356;12.456;2022-11-25T02:00:13;95563;;;2.9;98.8
56558;BME280;43358;50.356;12.456;2022-11-25T02:01:15;95558;;;2.8;98.8
56558;BME280;43358;50.356;12.456;2022-11-25T02:02:17;95562;;;2.8;98.8
56558;BME280;43358;50.356;12.456;2022-11-25T02:03:19;95562;;;2.8;98.8
56558;BME280;43358;50.356;12.456;2022-11-25T02:04:21;95562;;;2.8;98.8
56558;BME280;43358;50.356;12.456;2022-11-25T02:05:25;95564;;;2.8;98.8
56558;BME280;43358;50.356;12.456;2022-11-25T02:06:27;95564;;;2.8;98.8
56558;BME280;43358;50.356;12.456;2022-11-25T02:07:34;95566;;;2.8;98.8
56558;BME280;43358;50.356;12.456;2022-11-25T02:08:32;95565;;;2.8;98.8
56558;BME280;43358;50.356;12.456;2022-11-25T02:09:35;95568;;;2.8;98.8
56558;BME280;43358;50.356;12.456;2022-11-25T02:10:36;95570;;;2.8;98.8
56558;BME280;43358;50.356;12.456;2022-11-25T02:11:38;95571;;;2.8;98.8
56558;BME280;43358;50.356;12.456;2022-11-25T02:12:40;95571;;;2.8;98.8
56558;BME280;43358;50.356;12.456;2022-11-25T02:13:42;95568;;;2.8;98.8
56558;BME280;43358;50.356;12.456;2022-11-25T02:14:44;95568;;;2.7;98.8
56558;BME280;43358;50.356;12.456;2022-11-25T02:15:46;95565;;;2.7;98.8
56558;BME280;43358;50.356;12.456;2022-11-25T02:16:48;95566;;;2.7;98.8
56558;BME280;43358;50.356;12.456;2022-11-25T02:17:50;95563;;;2.7;98.8
56558;BME280;43358;50.356;12.456;2022-11-25T02:18:52;95566;;;2.7;98.8
56558;BME280;43358;50.356;12.456;2022-11-25T02:20:58;95564;;;2.7;98.8
56558;BME280;43358;50.356;12.456;2022-11-25T02:22:01;95564;;;2.7;98.8
56558;BME280;43358;50.356;12.456;2022-11-25T02:23:04;95565;;;2.8;98.8
56558;BME280;43358;50.356;12.456;2022-11-25T02:24:06;95567;;;2.7;98.8
56558;BME280;43358;50.356;12.456;2022-11-25T02:25:10;95567;;;2.7;98.8
56558;BME280;43358;50.356;12.456;2022-11-25T02:26:09;95567;;;2.7;98.8
56558;BME280;43358;50.356;12.456;2022-11-25T02:27:11;95565;;;2.7;98.8
56558;BME280;43358;50.356;12.456;2022-11-25T02:28:14;95563;;;2.7;98.8
56558;BME280;43358;50.356;12.456;2022-11-25T02:29:15;95566;;;2.7;98.8
56558;BME280;43358;50.356;12.456;2022-11-25T02:30:17;95565;;;2.7;98.8
56558;BME280;43358;50.356;12.456;2022-11-25T02:31:19;95564;;;2.8;98.8
56558;BME280;43358;50.356;12.456;2022-11-25T02:32:21;95563;;;2.8;98.8
56558;BME280;43358;50.356;12.456;2022-11-25T02:33:23;95562;;;2.8;98.8
56558;BME280;43358;50.356;12.456;2022-11-25T02:34:25;95563;;;2.9;98.8
56558;BME280;43358;50.356;12.456;2022-11-25T02:35:28;95560;;;2.8;98.8
56558;BME280;43358;50.356;12.456;2022-11-25T02:36:29;95562;;;2.8;98.8
56558;BME280;43358;50.356;12.456;2022-11-25T02:37:31;95561;;;2.8;98.8
56558;BME280;43358;50.356;12.456;2022-11-25T02:38:35;95563;;;2.8;98.8
56558;BME280;43358;50.356;12.456;2022-11-25T02:39:35;95560;;;2.8;98.8
56558;BME280;43358;50.356;12.456;2022-11-25T02:40:39;95558;;;2.8;98.8
56558;BME280;43358;50.356;12.456;2022-11-25T02:41:40;95558;;;2.8;98.8
56558;BME280;43358;50.356;12.456;2022-11-25T02:42:41;95559;;;2.8;98.8
56558;BME280;43358;50.356;12.456;2022-11-25T02:43:43;95557;;;2.8;98.8
56558;BME280;43358;50.356;12.456;2022-11-25T02:44:46;95556;;;2.8;98.8
56558;BME280;43358;50.356;12.456;2022-11-25T02:45:49;95556;;;2.8;98.8
56558;BME280;43358;50.356;12.456;2022-11-25T02:46:49;95557;;;2.8;98.8
56558;BME280;43358;50.356;12.456;2022-11-25T02:47:51;95557;;;2.8;98.8
56558;BME280;43358;50.356;12.456;2022-11-25T02:48:54;95553;;;2.8;98.8
56558;BME280;43358;50.356;12.456;2022-11-25T02:49:56;95554;;;2.8;98.8
56558;BME280;43358;50.356;12.456;2022-11-25T02:50:59;95553;;;2.8;98.8
56558;BME280;43358;50.356;12.456;2022-11-25T02:52:02;95552;;;2.8;98.8
56558;BME280;43358;50.356;12.456;2022-11-25T02:53:04;95549;;;2.7;98.8
56558;BME280;43358;50.356;12.456;2022-11-25T02:54:06;95549;;;2.7;98.8
56558;BME280;43358;50.356;12.456;2022-11-25T02:55:08;95550;;;2.7;98.8
56558;BME280;43358;50.356;12.456;2022-11-25T02:56:10;95550;;;2.7;98.8
56558;BME280;43358;50.356;12.456;2022-11-25T02:57:12;95548;;;2.7;98.8
56558;BME280;43358;50.356;12.456;2022-11-25T02:58:14;95546;;;2.7;98.8
56558;BME280;43358;50.356;12.456;2022-11-25T02:59:16;95547;;;2.7;98.8
56558;BME280;43358;50.356;12.456;2022-11-25T03:00:18;95551;;;2.7;98.8
56558;BME280;43358;50.356;12.456;2022-11-25T03:01:20;95548;;;2.7;98.8
56558;BME280;43358;50.356;12.456;2022-11-25T03:02:22;95546;;;2.6;98.8
56558;BME280;43358;50.356;12.456;2022-11-25T03:03:24;95547;;;2.6;98.8
56558;BME280;43358;50.356;12.456;2022-11-25T03:04:26;95547;;;2.6;98.8
56558;BME280;43358;50.356;12.456;2022-11-25T03:05:28;95543;;;2.6;98.8
56558;BME280;43358;50.356;12.456;2022-11-25T03:06:30;95544;;;2.6;98.8
56558;BME280;43358;50.356;12.456;2022-11-25T03:07:32;95543;;;2.6;98.8
56558;BME280;43358;50.356;12.456;2022-11-25T03:08:34;95542;;;2.6;98.8
56558;BME280;43358;50.356;12.456;2022-11-25T03:09:36;95546;;;2.6;98.8
56558;BME280;43358;50.356;12.456;2022-11-25T03:10:38;95544;;;2.7;98.8
56558;BME280;43358;50.356;12.456;2022-11-25T03:11:40;95545;;;2.7;98.8
56558;BME280;43358;50.356;12.456;2022-11-25T03:12:43;95544;;;2.7;98.8
56558;BME280;43358;50.356;12.456;2022-11-25T03:13:45;95547;;;2.8;98.8
56558;BME280;43358;50.356;12.456;2022-11-25T03:14:47;95547;;;2.7;98.8
56558;BME280;43358;50.356;12.456;2022-11-25T03:15:49;95545;;;2.7;98.8
56558;BME280;43358;50.356;12.456;2022-11-25T03:16:51;95547;;;2.7;98.8
56558;BME280;43358;50.356;12.456;2022-11-25T03:17:53;95549;;;2.7;98.8
56558;BME280;43358;50.356;12.456;2022-11-25T03:18:55;95550;;;2.6;98.8
56558;BME280;43358;50.356;12.456;2022-11-25T03:19:59;95547;;;2.6;98.8
56558;BME280;43358;50.356;12.456;2022-11-25T03:21:02;95550;;;2.6;98.8
56558;BME280;43358;50.356;12.456;2022-11-25T03:22:05;95552;;;2.6;98.8
56558;BME280;43358;50.356;12.456;2022-11-25T03:23:07;95551;;;2.6;98.8
56558;BME280;43358;50.356;12.456;2022-11-25T03:24:09;95553;;;2.6;98.8
56558;BME280;43358;50.356;12.456;2022-11-25T03:25:11;95550;;;2.6;98.8
56558;BME280;43358;50.356;12.456;2022-11-25T03:26:14;95551;;;2.6;98.8
56558;BME280;43358;50.356;12.456;2022-11-25T03:27:16;95552;;;2.6;98.8
56558;BME280;43358;50.356;12.456;2022-11-25T03:28:18;95553;;;2.6;98.8
56558;BME280;43358;50.356;12.456;2022-11-25T03:29:20;95555;;;2.6;98.8
56558;BME280;43358;50.356;12.456;2022-11-25T03:30:23;95553;;;2.6;98.8
56558;BME280;43358;50.356;12.456;2022-11-25T03:31:24;95552;;;2.6;98.8
56558;BME280;43358;50.356;12.456;2022-11-25T03:32:26;95555;;;2.6;98.8
56558;BME280;43358;50.356;12.456;2022-11-25T03:33:28;95556;;;2.6;98.8
56558;BME280;43358;50.356;12.456;2022-11-25T03:34:30;95558;;;2.6;98.8
56558;BME280;43358;50.356;12.456;2022-11-25T03:35:32;95561;;;2.6;98.8
56558;BME280;43358;50.356;12.456;2022-11-25T03:36:35;95563;;;2.6;98.8
56558;BME280;43358;50.356;12.456;2022-11-25T03:37:37;95561;;;2.6;98.8
56558;BME280;43358;50.356;12.456;2022-11-25T03:38:39;95562;;;2.6;98.8
56558;BME280;43358;50.356;12.456;2022-11-25T03:39:41;95568;;;2.6;98.8
56558;BME280;43358;50.356;12.456;2022-11-25T03:40:43;95569;;;2.6;98.8
56558;BME280;43358;50.356;12.456;2022-11-25T03:41:45;95570;;;2.6;98.8
56558;BME280;43358;50.356;12.456;2022-11-25T03:42:47;95568;;;2.6;98.8
56558;BME280;43358;50.356;12.456;2022-11-25T03:43:49;95568;;;2.6;98.8
56558;BME280;43358;50.356;12.456;2022-11-25T03:44:51;95567;;;2.5;98.8
56558;BME280;43358;50.356;12.456;2022-11-25T03:45:53;95569;;;2.5;98.8
56558;BME280;43358;50.356;12.456;2022-11-25T03:46:55;95566;;;2.5;98.8
56558;BME280;43358;50.356;12.456;2022-11-25T03:47:57;95565;;;2.5;98.8
56558;BME280;43358;50.356;12.456;2022-11-25T03:48:59;95567;;;2.5;98.8
56558;BME280;43358;50.356;12.456;2022-11-25T03:50:02;95569;;;2.5;98.8
56558;BME280;43358;50.356;12.456;2022-11-25T03:51:04;95568;;;2.5;98.8
56558;BME280;43358;50.356;12.456;2022-11-25T03:52:06;95565;;;2.5;98.8
56558;BME280;43358;50.356;12.456;2022-11-25T03:53:08;95567;;;2.5;98.8
56558;BME280;43358;50.356;12.456;2022-11-25T03:56:15;95567;;;2.5;98.8
56558;BME280;43358;50.356;12.456;2022-11-25T03:57:17;95566;;;2.5;98.8
56558;BME280;43358;50.356;12.456;2022-11-25T03:58:20;95567;;;2.5;98.8
56558;BME280;43358;50.356;12.456;2022-11-25T03:59:22;95568;;;2.5;98.8
56558;BME280;43358;50.356;12.456;2022-11-25T04:00:24;95570;;;2.5;98.8
56558;BME280;43358;50.356;12.456;2022-11-25T04:01:26;95568;;;2.5;98.8
56558;BME280;43358;50.356;12.456;2022-11-25T04:02:28;95569;;;2.5;98.8
56558;BME280;43358;50.356;12.456;2022-11-25T04:03:30;95568;;;2.5;98.8
56558;BME280;43358;50.356;12.456;2022-11-25T04:04:32;95570;;;2.5;98.8
56558;BME280;43358;50.356;12.456;2022-11-25T04:27:30;95565;;;2.6;98.8
56558;BME280;43358;50.356;12.456;2022-11-25T04:28:59;95566;;;2.8;98.8
56558;BME280;43358;50.356;12.456;2022-11-25T04:29:59;95566;;;2.8;98.8
56558;BME280;43358;50.356;12.456;2022-11-25T04:30:59;95564;;;2.8;98.8
56558;BME280;43358;50.356;12.456;2022-11-25T04:33:44;95555;;;2.9;98.8
56558;BME280;43358;50.356;12.456;2022-11-25T04:34:47;95555;;;2.9;98.8
56558;BME280;43358;50.356;12.456;2022-11-25T04:35:49;95557;;;2.8;98.8
56558;BME280;43358;50.356;12.456;2022-11-25T04:36:51;95559;;;2.8;98.8
56558;BME280;43358;50.356;12.456;2022-11-25T04:38:55;95562;;;2.7;98.8
56558;BME280;43358;50.356;12.456;2022-11-25T04:39:57;95565;;;2.7;98.8
56558;BME280;43358;50.356;12.456;2022-11-25T04:40:59;95566;;;2.7;98.8
56558;BME280;43358;50.356;12.456;2022-11-25T04:42:01;95566;;;2.7;98.8
56558;BME280;43358;50.356;12.456;2022-11-25T04:43:03;95565;;;2.6;98.8
56558;BME280;43358;50.356;12.456;2022-11-25T04:44:05;95561;;;2.6;98.8
56558;BME280;43358;50.356;12.456;2022-11-25T04:45:08;95556;;;2.7;98.8
56558;BME280;43358;50.356;12.456;2022-11-25T04:46:10;95556;;;2.7;98.8
56558;BME280;43358;50.356;12.456;2022-11-25T04:47:12;95554;;;2.7;98.8
56558;BME280;43358;50.356;12.456;2022-11-25T04:48:15;95556;;;2.7;98.8
56558;BME280;43358;50.356;12.456;2022-11-25T04:49:18;95559;;;2.7;98.8
56558;BME280;43358;50.356;12.456;2022-11-25T04:50:21;95557;;;2.7;98.8
56558;BME280;43358;50.356;12.456;2022-11-25T04:51:22;95565;;;2.7;98.8
56558;BME280;43358;50.356;12.456;2022-11-25T04:52:25;95563;;;2.7;98.8
56558;BME280;43358;50.356;12.456;2022-11-25T04:53:27;95566;;;2.7;98.8
56558;BME280;43358;50.356;12.456;2022-11-25T04:54:29;95565;;;2.7;98.8
56558;BME280;43358;50.356;12.456;2022-11-25T04:55:32;95564;;;2.6;98.8
56558;BME280;43358;50.356;12.456;2022-11-25T04:56:34;95565;;;2.6;98.8
56558;BME280;43358;50.356;12.456;2022-11-25T04:57:36;95565;;;2.6;98.8
56558;BME280;43358;50.356;12.456;2022-11-25T04:58:39;95569;;;2.5;98.8
56558;BME280;43358;50.356;12.456;2022-11-25T04:59:41;95569;;;2.5;98.8
56558;BME280;43358;50.356;12.456;2022-11-25T05:00:43;95568;;;2.5;98.8
56558;BME280;43358;50.356;12.456;2022-11-25T05:01:45;95568;;;2.5;98.8
56558;BME280;43358;50.356;12.456;2022-11-25T05:02:47;95570;;;2.6;98.8
56558;BME280;43358;50.356;12.456;2022-11-25T05:03:49;95573;;;2.6;98.8
56558;BME280;43358;50.356;12.456;2022-11-25T05:04:53;95572;;;2.6;98.8
56558;BME280;43358;50.356;12.456;2022-11-25T05:05:53;95572;;;2.6;98.8
56558;BME280;43358;50.356;12.456;2022-11-25T05:06:55;95577;;;2.6;98.8
56558;BME280;43358;50.356;12.456;2022-11-25T05:07:57;95581;;;2.6;98.8
56558;BME280;43358;50.356;12.456;2022-11-25T05:09:00;95581;;;2.5;98.8
56558;BME280;43358;50.356;12.456;2022-11-25T05:10:17;95584;;;2.5;98.8
56558;BME280;43358;50.356;12.456;2022-11-25T05:11:04;95583;;;2.5;98.8
56558;BME280;43358;50.356;12.456;2022-11-25T05:12:07;95587;;;2.5;98.8
56558;BME280;43358;50.356;12.456;2022-11-25T05:13:08;95588;;;2.4;98.8
56558;BME280;43358;50.356;12.456;2022-11-25T05:14:10;95584;;;2.4;98.8
56558;BME280;43358;50.356;12.456;2022-11-25T05:15:12;95584;;;2.4;98.8
56558;BME280;43358;50.356;12.456;2022-11-25T05:16:16;95585;;;2.4;98.8
56558;BME280;43358;50.356;12.456;2022-11-25T05:17:20;95586;;;2.4;98.8
56558;BME280;43358;50.356;12.456;2022-11-25T05:18:21;95584;;;2.4;98.8
56558;BME280;43358;50.356;12.456;2022-11-25T05:19:23;95584;;;2.3;98.8
56558;BME280;43358;50.356;12.456;2022-11-25T05:20:25;95584;;;2.3;98.8
56558;BME280;43358;50.356;12.456;2022-11-25T05:21:27;95585;;;2.4;98.8
56558;BME280;43358;50.356;12.456;2022-11-25T05:22:30;95583;;;2.4;98.8
56558;BME280;43358;50.356;12.456;2022-11-25T05:23:31;95583;;;2.4;98.8
56558;BME280;43358;50.356;12.456;2022-11-25T05:24:33;95583;;;2.4;98.8
56558;BME280;43358;50.356;12.456;2022-11-25T05:25:35;95583;;;2.4;98.8
56558;BME280;43358;50.356;12.456;2022-11-25T05:26:37;95584;;;2.4;98.8
56558;BME280;43358;50.356;12.456;2022-11-25T05:27:39;95582;;;2.4;98.8
56558;BME280;43358;50.356;12.456;2022-11-25T05:28:41;95583;;;2.3;98.8
56558;BME280;43358;50.356;12.456;2022-11-25T05:29:43;95584;;;2.3;98.8
56558;BME280;43358;50.356;12.456;2022-11-25T05:30:45;95582;;;2.3;98.8
56558;BME280;43358;50.356;12.456;2022-11-25T05:31:47;95583;;;2.3;98.8
56558;BME280;43358;50.356;12.456;2022-11-25T05:32:49;95583;;;2.3;98.8
56558;BME280;43358;50.356;12.456;2022-11-25T05:33:51;95583;;;2.2;98.8
56558;BME280;43358;50.356;12.456;2022-11-25T05:34:53;95585;;;2.3;98.8
56558;BME280;43358;50.356;12.456;2022-11-25T05:35:56;95591;;;2.2;98.8
56558;BME280;43358;50.356;12.456;2022-11-25T05:36:57;95590;;;2.2;98.8
56558;BME280;43358;50.356;12.456;2022-11-25T05:37:59;95591;;;2.2;98.8
56558;BME280;43358;50.356;12.456;2022-11-25T05:39:02;95596;;;2.2;98.8
56558;BME280;43358;50.356;12.456;2022-11-25T05:40:04;95595;;;2.2;98.8
56558;BME280;43358;50.356;12.456;2022-11-25T05:41:06;95592;;;2.2;98.8
56558;BME280;43358;50.356;12.456;2022-11-25T05:42:07;95595;;;2.2;98.8
56558;BME280;43358;50.356;12.456;2022-11-25T05:43:09;95596;;;2.2;98.8
56558;BME280;43358;50.356;12.456;2022-11-25T05:45:16;95588;;;2.2;98.8
56558;BME280;43358;50.356;12.456;2022-11-25T05:46:18;95586;;;2.2;98.8
56558;BME280;43358;50.356;12.456;2022-11-25T05:47:20;95581;;;2.2;98.8
56558;BME280;43358;50.356;12.456;2022-11-25T05:48:22;95582;;;2.2;98.8
56558;BME280;43358;50.356;12.456;2022-11-25T05:49:24;95585;;;2.2;98.8
56558;BME280;43358;50.356;12.456;2022-11-25T05:50:26;95586;;;2.2;98.8
56558;BME280;43358;50.356;12.456;2022-11-25T05:51:29;95587;;;2.2;98.8
56558;BME280;43358;50.356;12.456;2022-11-25T05:52:30;95586;;;2.3;98.8
56558;BME280;43358;50.356;12.456;2022-11-25T05:53:32;95589;;;2.3;98.8
56558;BME280;43358;50.356;12.456;2022-11-25T05:54:35;95587;;;2.3;98.8
56558;BME280;43358;50.356;12.456;2022-11-25T05:55:37;95589;;;2.3;98.8
56558;BME280;43358;50.356;12.456;2022-11-25T05:56:39;95587;;;2.3;98.8
56558;BME280;43358;50.356;12.456;2022-11-25T05:57:41;95587;;;2.3;98.8
56558;BME280;43358;50.356;12.456;2022-11-25T05:58:43;95587;;;2.3;98.8
56558;BME280;43358;50.356;12.456;2022-11-25T05:59:45;95588;;;2.3;98.8
56558;BME280;43358;50.356;12.456;2022-11-25T06:00:47;95588;;;2.3;98.8
56558;BME280;43358;50.356;12.456;2022-11-25T06:01:51;95583;;;2.3;98.8
56558;BME280;43358;50.356;12.456;2022-11-25T06:02:51;95586;;;2.4;98.8
56558;BME280;43358;50.356;12.456;2022-11-25T06:03:53;95585;;;2.4;98.8
56558;BME280;43358;50.356;12.456;2022-11-25T06:04:55;95582;;;2.5;98.8
56558;BME280;43358;50.356;12.456;2022-11-25T06:05:58;95585;;;2.5;98.8
56558;BME280;43358;50.356;12.456;2022-11-25T06:06:59;95588;;;2.5;98.8
56558;BME280;43358;50.356;12.456;2022-11-25T06:08:01;95588;;;2.5;98.8
56558;BME280;43358;50.356;12.456;2022-11-25T06:09:03;95591;;;2.5;98.8
56558;BME280;43358;50.356;12.456;2022-11-25T06:10:06;95589;;;2.5;98.8
56558;BME280;43358;50.356;12.456;2022-11-25T06:11:08;95590;;;2.6;98.8
56558;BME280;43358;50.356;12.456;2022-11-25T06:12:09;95592;;;2.6;98.8
56558;BME280;43358;50.356;12.456;2022-11-25T06:13:12;95591;;;2.6;98.8
56558;BME280;43358;50.356;12.456;2022-11-25T06:14:15;95594;;;2.6;98.8
56558;BME280;43358;50.356;12.456;2022-11-25T06:15:17;95592;;;2.6;98.8
56558;BME280;43358;50.356;12.456;2022-11-25T06:16:20;95590;;;2.6;98.8
56558;BME280;43358;50.356;12.456;2022-11-25T06:17:21;95590;;;2.6;98.8
56558;BME280;43358;50.356;12.456;2022-11-25T06:18:23;95590;;;2.6;98.8
56558;BME280;43358;50.356;12.456;2022-11-25T06:19:25;95591;;;2.6;98.8
56558;BME280;43358;50.356;12.456;2022-11-25T06:20:27;95592;;;2.6;98.8
56558;BME280;43358;50.356;12.456;2022-11-25T06:21:29;95595;;;2.6;98.8
56558;BME280;43358;50.356;12.456;2022-11-25T06:22:31;95598;;;2.6;98.8
56558;BME280;43358;50.356;12.456;2022-11-25T06:23:33;95597;;;2.6;98.8